This is the latest recevied weather packets stored in our database for station/object MB7IWY-13. If no packets are shown the sender has not sent any weather packets the latest 10 day(s).
| Time | Temp. | Humidity | Pressure | Rain* | Wind** | Luminosity | Snow |
|---|---|---|---|---|---|---|---|
| 1777700162 | 8.89° C | 91% | 1037.9 hPa | 0 mm | - | 0 W/m² | - |
| 1777698563 | 8.89° C | 92% | 1037.9 hPa | 0 mm | - | 0 W/m² | - |
| 1777698002 | 8.89° C | 93% | 1037.9 hPa | 0 mm | - | 0 W/m² | - |
| 1777694423 | 8.89° C | 93% | 1037.9 hPa | 0 mm | - | 0 W/m² | - |
| 1777694042 | 8.89° C | 93% | 1037.9 hPa | 0 mm | - | 0 W/m² | - |
| 1777693502 | 8.89° C | 93% | 1037.9 hPa | 0 mm | - | 0 W/m² | - |
| 1777689902 | 9.44° C | 91% | 1037.9 hPa | 0 mm | - | 0 W/m² | - |
| 1777689362 | 9.44° C | 91% | 1037.9 hPa | 0 mm | - | 0 W/m² | - |
| 1777688822 | 10° C | 90% | 1038.9 hPa | 0 mm | - | 0 W/m² | - |
| 1777688303 | 10° C | 90% | 1038.9 hPa | 0 mm | - | 0 W/m² | - |
| 1777687202 | 10° C | 89% | 1038.9 hPa | 0 mm | - | 0 W/m² | - |
| 1777685762 | 10° C | 89% | 1038.9 hPa | 0 mm | - | 0 W/m² | - |
| 1777685243 | 10° C | 89% | 1038.9 hPa | 0 mm | - | 0 W/m² | - |
| 1777684142 | 10° C | 89% | 1038.9 hPa | 0 mm | - | 0 W/m² | - |
| 1777682702 | 10.56° C | 89% | 1038.9 hPa | 0 mm | - | 0 W/m² | - |
| 1777681082 | 11.11° C | 89% | 1038.9 hPa | 0 mm | - | 0 W/m² | - |
| 1777679642 | 11.11° C | 89% | 1038.9 hPa | 0 mm | - | 0 W/m² | - |
| 1777678562 | 11.11° C | 89% | 1038.9 hPa | 0 mm | - | 0 W/m² | - |
| 1777677482 | 11.67° C | 89% | 1038.9 hPa | 0 mm | - | 0 W/m² | - |
| 1777672802 | 12.22° C | 86% | 1040 hPa | 0 mm | - | 0 W/m² | - |
| 1777670282 | 12.22° C | 85% | 1040 hPa | 0 mm | - | 0 W/m² | - |
| 1777669202 | 13.89° C | 78% | 1040 hPa | 0 mm | - | 0 W/m² | - |
| 1777662543 | 15° C | 72% | 1038.9 hPa | 0 mm | - | 0 W/m² | - |
| 1777661103 | 16.11° C | 71% | 1038.9 hPa | 0 mm | - | 0 W/m² | - |
| 1777658403 | 18.89° C | 63% | 1037.9 hPa | 0 mm | - | 0 W/m² | - |
* Rain latest hour (hover to see other rain measurements)
** Current wind speed in m/s (hover to see current wind gust speed)